Time;durP1;ratioP1;P1;durP2;ratioP2;P2;SDS_P1;SDS_P2;PMS_P1;PMS_P2;Temp;Humidity;BMP_temperature;BMP_pressure;BME280_temperature;BME280_humidity;BME280_pressure;Samples;Min_cycle;Max_cycle;Signal;HPM_P1;HPM_P2
2021/12/19 00:00:21;;;;;;;3.09;2.43;;;;;;;1.45;77.33;99409.82;364217;145;864875;-61
2021/12/19 00:01:37;;;;;;;3.43;2.95;;;;;;;1.60;76.76;99408.44;362215;144;857199;-61
2021/12/19 00:02:45;;;;;;;2.71;2.11;;;;;;;1.66;76.26;99406.00;363490;145;857188;-59
2021/12/19 00:08:53;;;;;;;4.02;3.49;;;;;;;;;;361582;145;856580;-60
2021/12/19 00:09:55;;;;;;;4.17;3.18;;;;;;;;;;359876;145;858962;-59
2021/12/19 00:10:57;;;;;;;3.68;2.85;;;;;;;;;;358595;148;866491;-59
2021/12/19 00:11:58;;;;;;;3.70;2.71;;;;;;;;;;356504;148;859175;-59
2021/12/19 00:13:00;;;;;;;6.69;3.58;;;;;;;;;;355888;147;857265;-61
2021/12/19 00:14:02;;;;;;;4.92;3.26;;;;;;;;;;356983;150;866598;-59
2021/12/19 00:15:04;;;;;;;3.39;2.80;;;;;;;;;;356917;148;864883;-61
2021/12/19 00:16:06;;;;;;;4.14;2.62;;;;;;;;;;355536;147;864783;-61
2021/12/19 00:17:07;;;;;;;3.84;3.29;;;;;;;;;;358381;149;857229;-59
2021/12/19 00:18:09;;;;;;;3.64;2.74;;;;;;;;;;358761;147;864910;-60
2021/12/19 00:19:10;;;;;;;4.04;3.01;;;;;;;;;;356272;147;857532;-58
2021/12/19 00:20:12;;;;;;;3.97;3.36;;;;;;;;;;354855;147;864779;-59
2021/12/19 00:21:15;;;;;;;3.20;2.25;;;;;;;;;;357930;147;864764;-59
2021/12/19 00:22:16;;;;;;;7.15;3.34;;;;;;;;;;355667;147;866401;-59
2021/12/19 00:23:18;;;;;;;4.04;3.56;;;;;;;;;;358548;147;864808;-57
2021/12/19 00:24:20;;;;;;;5.39;3.37;;;;;;;;;;347028;153;861826;-57
2021/12/19 00:25:21;;;;;;;4.57;3.17;;;;;;;;;;357727;148;859223;-60
2021/12/19 00:26:23;;;;;;;4.21;3.22;;;;;;;;;;356589;148;864753;-57
2021/12/19 00:27:24;;;;;;;4.86;3.86;;;;;;;;;;355652;147;860223;-60
2021/12/19 00:28:26;;;;;;;3.79;3.19;;;;;;;;;;356413;148;858068;-59
2021/12/19 00:29:27;;;;;;;5.46;3.94;;;;;;;;;;357498;147;857321;-58
2021/12/19 00:30:29;;;;;;;4.45;3.92;;;;;;;;;;357189;148;857937;-59
2021/12/19 00:31:31;;;;;;;4.51;3.53;;;;;;;;;;358174;149;864745;-59
2021/12/19 00:32:32;;;;;;;5.94;4.55;;;;;;;;;;356229;148;857471;-59
2021/12/19 00:33:34;;;;;;;7.59;3.71;;;;;;;;;;358142;147;864871;-59
2021/12/19 00:34:35;;;;;;;6.52;3.54;;;;;;;;;;353849;150;857444;-60
2021/12/19 00:35:37;;;;;;;5.29;3.32;;;;;;;;;;356157;147;865539;-59
2021/12/19 00:36:38;;;;;;;6.01;4.05;;;;;;;;;;358921;148;857280;-57
2021/12/19 00:37:40;;;;;;;3.59;2.51;;;;;;;;;;353513;150;858011;-59
2021/12/19 00:38:41;;;;;;;5.21;3.96;;;;;;;;;;356083;148;859407;-59
2021/12/19 00:39:43;;;;;;;5.42;3.48;;;;;;;;;;356734;147;865542;-59
2021/12/19 00:40:45;;;;;;;4.81;3.20;;;;;;;;;;360882;147;857868;-59
2021/12/19 00:41:52;;;;;;;5.32;3.14;;;;;;;;;;357978;148;863618;-61
2021/12/19 00:43:02;;;;;;;4.92;3.66;;;;;;;;;;356555;148;864773;-59
2021/12/19 00:44:07;;;;;;;5.62;3.97;;;;;;;;;;353845;148;860463;-59
2021/12/19 00:45:02;;;;;;;5.06;3.72;;;;;;;;;;354693;150;858949;-58
2021/12/19 00:46:08;;;;;;;5.87;3.08;;;;;;;;;;357423;148;859018;-59
2021/12/19 00:47:09;;;;;;;4.39;3.61;;;;;;;;;;356122;147;865607;-59
2021/12/19 00:48:11;;;;;;;3.88;3.11;;;;;;;;;;357439;150;859057;-59
2021/12/19 00:49:13;;;;;;;4.64;3.92;;;;;;;;;;359946;148;857307;-59
2021/12/19 00:50:16;;;;;;;6.10;4.03;;;;;;;;;;357037;147;857293;-59
2021/12/19 00:51:18;;;;;;;4.20;2.29;;;;;;;;;;357554;148;858716;-59
2021/12/19 00:52:20;;;;;;;5.57;4.23;;;;;;;;;;355842;147;865041;-59
2021/12/19 00:53:22;;;;;;;5.64;4.26;;;;;;;;;;358785;147;866531;-59
2021/12/19 00:54:24;;;;;;;4.84;3.82;;;;;;;;;;357915;147;857995;-59
2021/12/19 00:55:25;;;;;;;4.47;3.75;;;;;;;;;;358261;147;863883;-59
2021/12/19 00:56:27;;;;;;;3.91;2.77;;;;;;;;;;356057;147;857147;-59
2021/12/19 00:57:29;;;;;;;8.02;4.28;;;;;;;;;;357273;147;857351;-59
2021/12/19 00:58:30;;;;;;;5.80;4.12;;;;;;;;;;358267;148;865901;-59
2021/12/19 00:59:32;;;;;;;3.44;3.10;;;;;;;;;;355733;150;858716;-59
2021/12/19 01:00:34;;;;;;;6.36;4.21;;;;;;;;;;357717;148;866468;-59
2021/12/19 01:01:36;;;;;;;3.73;3.35;;;;;;;;;;358797;147;859847;-60
2021/12/19 01:02:37;;;;;;;5.01;4.21;;;;;;;;;;357982;148;858371;-58
2021/12/19 01:03:43;;;;;;;5.66;4.32;;;;;;;;;;359983;148;857809;-58
2021/12/19 01:04:42;;;;;;;6.51;3.99;;;;;;;;;;358935;147;859011;-59
2021/12/19 01:05:44;;;;;;;4.26;2.86;;;;;;;;;;358178;148;866237;-59
2021/12/19 01:06:45;;;;;;;5.68;3.50;;;;;;;;;;353015;148;864726;-59
2021/12/19 01:07:47;;;;;;;7.09;4.19;;;;;;;;;;355331;148;857241;-59
2021/12/19 01:08:48;;;;;;;5.05;4.35;;;;;;;;;;355526;149;860811;-59
2021/12/19 01:09:50;;;;;;;3.43;2.54;;;;;;;;;;359263;147;857414;-59
2021/12/19 01:10:52;;;;;;;5.00;3.78;;;;;;;;;;355813;148;856632;-59
2021/12/19 01:11:53;;;;;;;6.82;4.37;;;;;;;;;;355933;148;867019;-59
2021/12/19 01:12:55;;;;;;;7.35;4.28;;;;;;;;;;356916;147;859508;-59
2021/12/19 01:13:56;;;;;;;6.51;4.05;;;;;;;;;;354902;148;859569;-59
2021/12/19 01:14:58;;;;;;;4.35;3.75;;;;;;;;;;359374;147;856352;-59
2021/12/19 01:16:01;;;;;;;5.58;3.81;;;;;;;;;;355177;148;856613;-59
2021/12/19 01:17:03;;;;;;;5.04;4.12;;;;;;;;;;358484;150;859513;-59
2021/12/19 01:18:05;;;;;;;7.05;4.15;;;;;;;;;;358777;147;857266;-59
2021/12/19 01:19:07;;;;;;;5.54;4.39;;;;;;;;;;357401;147;857286;-58
2021/12/19 01:20:16;;;;;;;4.39;3.10;;;;;;;;;;358741;147;863115;-59
2021/12/19 01:21:18;;;;;;;5.90;4.04;;;;;;;;;;355355;148;866022;-61
2021/12/19 01:22:19;;;;;;;6.59;4.08;;;;;;;;;;358633;147;857804;-59
2021/12/19 01:23:22;;;;;;;6.68;4.55;;;;;;;;;;356438;148;864771;-59
2021/12/19 01:24:23;;;;;;;7.82;4.78;;;;;;;;;;351690;150;864876;-61
2021/12/19 01:25:25;;;;;;;9.21;4.42;;;;;;;;;;356768;147;857315;-61
2021/12/19 01:26:26;;;;;;;6.75;4.53;;;;;;;;;;357314;147;857348;-59
2021/12/19 01:27:28;;;;;;;7.07;4.12;;;;;;;;;;357166;150;864895;-59
2021/12/19 01:28:29;;;;;;;4.78;3.61;;;;;;;;;;357561;147;861181;-59
2021/12/19 01:29:31;;;;;;;5.64;4.32;;;;;;;;;;358097;147;858608;-59
2021/12/19 01:30:33;;;;;;;5.64;4.02;;;;;;;;;;359028;150;857362;-59
2021/12/19 01:31:34;;;;;;;5.96;4.16;;;;;;;;;;355584;147;857468;-59
2021/12/19 01:32:37;;;;;;;6.62;4.32;;;;;;;;;;357543;147;861341;-60
2021/12/19 01:33:39;;;;;;;6.14;4.39;;;;;;;;;;357068;148;858477;-60
2021/12/19 01:34:40;;;;;;;6.12;4.28;;;;;;;;;;358378;147;859481;-59
2021/12/19 01:35:42;;;;;;;6.77;4.36;;;;;;;;;;358612;148;865331;-59
2021/12/19 01:36:43;;;;;;;6.11;4.09;;;;;;;;;;357800;148;857465;-61
2021/12/19 01:37:45;;;;;;;5.74;3.61;;;;;;;;;;355765;147;866556;-59
2021/12/19 01:38:47;;;;;;;4.20;3.16;;;;;;;;;;354540;148;856239;-59
2021/12/19 01:39:48;;;;;;;6.89;4.22;;;;;;;;;;356430;147;858787;-59
2021/12/19 01:40:50;;;;;;;5.19;4.11;;;;;;;;;;358629;148;857050;-59
2021/12/19 01:41:53;;;;;;;7.21;3.02;;;;;;;;;;358399;148;865833;-59
2021/12/19 01:42:56;;;;;;;5.49;3.40;;;;;;;;;;357349;147;865123;-59
2021/12/19 01:43:58;;;;;;;4.03;3.33;;;;;;;;;;354842;147;866039;-59
2021/12/19 01:44:59;;;;;;;5.43;4.01;;;;;;;;;;359226;148;858191;-59
2021/12/19 01:46:01;;;;;;;6.31;3.98;;;;;;;;;;356372;148;867198;-61
2021/12/19 01:47:03;;;;;;;4.04;3.34;;;;;;;;;;360079;147;857727;-59
2021/12/19 01:48:06;;;;;;;3.92;3.23;;;;;;;;;;358777;149;866562;-59
2021/12/19 01:49:08;;;;;;;8.06;4.03;;;;;;;;;;355292;148;858396;-59
2021/12/19 01:50:10;;;;;;;5.55;4.21;;;;;;;;;;359372;147;858141;-59
2021/12/19 01:51:12;;;;;;;5.35;4.46;;;;;;;;;;357385;148;858942;-59
2021/12/19 01:52:13;;;;;;;4.92;4.03;;;;;;;;;;356735;148;862439;-59
2021/12/19 01:53:15;;;;;;;7.41;4.74;;;;;;;;;;358806;147;858665;-59
2021/12/19 01:54:16;;;;;;;5.70;3.79;;;;;;;;;;357832;148;861653;-59
2021/12/19 01:55:18;;;;;;;5.41;4.39;;;;;;;;;;354295;147;864784;-59
2021/12/19 01:56:20;;;;;;;6.94;4.01;;;;;;;;;;354662;147;857226;-59
2021/12/19 01:57:22;;;;;;;5.88;3.89;;;;;;;;;;355719;147;864779;-60
2021/12/19 01:58:24;;;;;;;4.59;3.66;;;;;;;;;;357804;147;864829;-59
2021/12/19 01:59:25;;;;;;;4.54;3.09;;;;;;;;;;359279;148;857117;-59
2021/12/19 02:00:31;;;;;;;5.37;3.71;;;;;;;;;;358447;147;864879;-59
2021/12/19 02:01:40;;;;;;;4.60;3.12;;;;;;;;;;353196;147;859488;-59
2021/12/19 02:02:42;;;;;;;4.23;3.52;;;;;;;;;;354026;147;856198;-59
2021/12/19 02:03:43;;;;;;;7.26;4.17;;;;;;;;;;357243;148;857249;-59
2021/12/19 02:04:45;;;;;;;4.96;3.58;;;;;;;;;;357919;147;865422;-59
2021/12/19 02:05:46;;;;;;;5.91;4.11;;;;;;;;;;356397;149;859859;-59
2021/12/19 02:06:48;;;;;;;6.52;4.10;;;;;;;;;;356429;147;865166;-61
2021/12/19 02:07:50;;;;;;;5.31;3.96;;;;;;;;;;359133;147;864564;-61
2021/12/19 02:08:55;;;;;;;5.41;4.03;;;;;;;;;;359313;148;864113;-61
2021/12/19 02:09:55;;;;;;;4.93;3.42;;;;;;;;;;357762;148;861664;-61
2021/12/19 02:10:56;;;;;;;4.04;3.12;;;;;;;;;;358094;147;859711;-61
2021/12/19 02:11:59;;;;;;;5.64;4.01;;;;;;;;;;362937;147;864685;-60
2021/12/19 02:13:01;;;;;;;3.73;3.17;;;;;;;;;;359002;149;857371;-58
2021/12/19 02:14:02;;;;;;;5.78;3.91;;;;;;;;;;358609;148;864868;-61
2021/12/19 02:15:05;;;;;;;5.78;3.87;;;;;;;;;;358428;147;865144;-61
2021/12/19 02:16:06;;;;;;;5.15;2.94;;;;;;;;;;358743;147;858988;-60
2021/12/19 02:17:08;;;;;;;4.76;3.78;;;;;;;;;;358366;147;859354;-61
2021/12/19 02:18:11;;;;;;;4.13;3.53;;;;;;;;;;356710;147;864765;-59
2021/12/19 02:19:13;;;;;;;5.90;4.13;;;;;;;;;;358717;147;857459;-60
2021/12/19 02:20:16;;;;;;;4.97;3.63;;;;;;;;;;354619;147;865700;-58
2021/12/19 02:21:18;;;;;;;6.33;3.27;;;;;;;;;;356694;147;856380;-59
2021/12/19 02:22:20;;;;;;;5.46;4.29;;;;;;;;;;360300;147;859934;-59
2021/12/19 02:23:24;;;;;;;5.11;3.85;;;;;;;;;;356127;147;866632;-58
2021/12/19 02:24:25;;;;;;;4.96;3.15;;;;;;;;;;356339;148;864818;-59
2021/12/19 02:25:27;;;;;;;4.96;3.31;;;;;;;;;;348476;152;858137;-59
2021/12/19 02:26:29;;;;;;;4.41;3.11;;;;;;;;;;347869;152;864795;-60
2021/12/19 02:27:30;;;;;;;7.10;3.64;;;;;;;;;;345682;153;864948;-58
2021/12/19 02:28:32;;;;;;;3.94;3.27;;;;;;;;;;347784;150;857393;-60
2021/12/19 02:29:33;;;;;;;4.05;3.14;;;;;;;;;;349526;151;857450;-60
2021/12/19 02:30:35;;;;;;;5.99;3.80;;;;;;;;;;348299;152;859148;-58
2021/12/19 02:31:37;;;;;;;6.39;3.79;;;;;;;;;;348437;152;864989;-60
2021/12/19 02:32:40;;;;;;;5.78;3.87;;;;;;;;;;347240;152;864991;-60
2021/12/19 02:33:53;;;;;;;4.80;3.60;;;;;;;;;;346222;152;857816;-58
2021/12/19 02:34:48;;;;;;;4.42;3.24;;;;;;;;;;347980;151;860313;-60
2021/12/19 02:36:43;;;;;;;6.76;4.35;;;;;;;;;;348027;150;857984;-59
2021/12/19 02:37:08;;;;;;;5.67;4.03;;;;;;;;;;326775;156;856474;-60
2021/12/19 02:40:39;;;;;;;4.51;3.13;;;;;;;;;;341628;153;857292;-59
2021/12/19 02:48:14;;;;;;;6.18;3.56;;;;;;;;;;341050;155;857637;-59
2021/12/19 02:49:13;;;;;;;6.48;4.78;;;;;;;;;;342778;153;857402;-59
2021/12/19 02:50:19;;;;;;;3.87;2.62;;;;;;;;;;348323;153;857176;-59
2021/12/19 02:51:21;;;;;;;6.47;3.99;;;;;;;;;;349703;153;857606;-58
2021/12/19 02:52:23;;;;;;;4.59;3.75;;;;;;;;;;349721;151;858372;-59
2021/12/19 02:53:28;;;;;;;7.33;4.14;;;;;;;;;;348908;152;866487;-59
2021/12/19 02:54:30;;;;;;;5.83;3.86;;;;;;;;;;347296;152;858104;-59
2021/12/19 02:55:32;;;;;;;4.70;3.66;;;;;;;;;;357209;147;857281;-59
2021/12/19 02:56:34;;;;;;;6.02;4.28;;;;;;;;;;359092;147;864838;-59
2021/12/19 02:57:37;;;;;;;6.39;4.19;;;;;;;;;;357344;147;857296;-59
2021/12/19 02:58:40;;;;;;;4.96;3.52;;;;;;;;;;352755;151;865767;-59
2021/12/19 02:59:41;;;;;;;8.04;4.85;;;;;;;;;;358037;147;857255;-59
2021/12/19 03:00:43;;;;;;;6.99;4.39;;;;;;;;;;359166;147;857498;-57
2021/12/19 03:01:45;;;;;;;6.69;4.45;;;;;;;;;;358074;147;857099;-59
2021/12/19 03:02:47;;;;;;;5.38;4.07;;;;;;;;;;357731;149;858862;-61
2021/12/19 03:03:49;;;;;;;6.50;4.46;;;;;;;;;;359147;147;864752;-60
2021/12/19 03:04:54;;;;;;;6.84;3.49;;;;;;;;;;357424;148;865121;-58
2021/12/19 03:05:56;;;;;;;6.52;3.83;;;;;;;;;;357959;148;863207;-58
2021/12/19 03:06:57;;;;;;;5.43;4.18;;;;;;;;;;348070;152;858479;-59
2021/12/19 03:08:01;;;;;;;4.65;3.35;;;;;;;;;;361820;147;856443;-58
2021/12/19 03:09:07;;;;;;;6.12;4.24;;;;;;;;;;361236;147;866558;-59
2021/12/19 03:12:04;;;;;;;5.90;4.26;;;;;;;;;;359302;147;857980;-60
2021/12/19 03:17:56;;;;;;;5.37;3.89;;;;;;;;;;339315;156;857783;-59
2021/12/19 03:18:41;;;;;;;6.27;4.84;;;;;;;;;;357179;150;858608;-59
2021/12/19 03:19:42;;;;;;;8.19;4.76;;;;;;;;;;358684;148;857440;-59
2021/12/19 03:20:44;;;;;;;5.71;4.17;;;;;;;;;;357416;147;857963;-59
2021/12/19 03:21:46;;;;;;;7.64;4.87;;;;;;;;;;359537;148;864681;-59
2021/12/19 03:22:48;;;;;;;5.82;3.74;;;;;;;;;;359042;149;857085;-59
2021/12/19 03:23:50;;;;;;;6.04;3.84;;;;;;;;;;357928;148;857284;-59
2021/12/19 03:24:51;;;;;;;6.41;4.89;;;;;;;;;;358364;147;866050;-59
2021/12/19 03:25:53;;;;;;;4.29;3.56;;;;;;;;;;357387;147;857239;-60
2021/12/19 03:26:54;;;;;;;5.96;3.88;;;;;;;;;;355968;148;857455;-59
2021/12/19 03:27:56;;;;;;;4.46;3.16;;;;;;;;;;356989;147;864834;-59
2021/12/19 03:28:57;;;;;;;6.77;4.54;;;;;;;;;;361304;148;857232;-58
2021/12/19 03:29:59;;;;;;;7.14;4.33;;;;;;;;;;357093;148;860140;-59
2021/12/19 03:31:02;;;;;;;6.88;4.77;;;;;;;;;;356843;148;857398;-59
2021/12/19 03:32:04;;;;;;;5.78;3.83;;;;;;;;;;356328;148;864832;-60
2021/12/19 03:33:06;;;;;;;6.11;4.13;;;;;;;;;;354867;148;857280;-59
2021/12/19 03:34:07;;;;;;;7.45;4.63;;;;;;;;;;353663;148;857971;-59
2021/12/19 03:35:12;;;;;;;4.89;3.47;;;;;;;;;;357656;148;864812;-60
2021/12/19 03:36:13;;;;;;;5.15;3.85;;;;;;;;;;355426;148;864769;-58
2021/12/19 03:37:15;;;;;;;6.06;4.68;;;;;;;;;;359501;148;857243;-59
2021/12/19 03:38:16;;;;;;;5.87;4.31;;;;;;;;;;357381;148;866378;-59
2021/12/19 03:39:26;;;;;;;5.13;3.00;;;;;;;;;;357449;148;859434;-60
2021/12/19 03:40:24;;;;;;;4.18;2.99;;;;;;;;;;354005;148;866750;-59
2021/12/19 03:41:33;;;;;;;6.22;3.54;;;;;;;;;;358399;148;857260;-59
2021/12/19 03:42:29;;;;;;;5.86;4.14;;;;;;;;;;358700;147;864815;-59
2021/12/19 03:43:31;;;;;;;6.54;3.74;;;;;;;;;;353758;148;858386;-59
2021/12/19 03:44:33;;;;;;;7.04;4.09;;;;;;;;;;357236;148;865288;-58
2021/12/19 03:45:35;;;;;;;3.63;3.10;;;;;;;;;;356398;147;866550;-61
2021/12/19 03:46:37;;;;;;;5.35;4.03;;;;;;;;;;359398;149;857252;-61
2021/12/19 03:47:38;;;;;;;4.35;3.31;;;;;;;;;;357254;148;857349;-61
2021/12/19 03:48:40;;;;;;;6.14;4.25;;;;;;;;;;356866;147;866547;-61
2021/12/19 03:49:42;;;;;;;6.24;3.75;;;;;;;;;;351407;150;866640;-60
2021/12/19 03:50:45;;;;;;;6.82;4.15;;;;;;;;;;350203;150;861302;-60
2021/12/19 03:51:47;;;;;;;5.47;4.12;;;;;;;;;;358134;148;864683;-60
2021/12/19 03:52:49;;;;;;;6.05;4.41;;;;;;;;;;355272;147;858920;-59
2021/12/19 03:53:51;;;;;;;4.39;3.32;;;;;;;;;;354809;150;856288;-59
2021/12/19 03:54:52;;;;;;;6.69;4.63;;;;;;;;;;354658;147;857363;-58
2021/12/19 03:55:54;;;;;;;5.84;3.71;;;;;;;;;;355932;147;858936;-59
2021/12/19 03:56:55;;;;;;;4.34;2.97;;;;;;;;;;354124;148;865546;-58
2021/12/19 03:57:58;;;;;;;4.06;3.36;;;;;;;;;;354985;147;859230;-59
2021/12/19 03:59:00;;;;;;;4.66;3.91;;;;;;;;;;357069;147;857323;-58
2021/12/19 04:00:03;;;;;;;6.35;4.36;;;;;;;;;;355346;147;857400;-59
2021/12/19 04:01:07;;;;;;;4.56;2.82;;;;;;;;;;365233;147;864794;-59
2021/12/19 04:02:08;;;;;;;5.82;4.39;;;;;;;;;;358920;148;857721;-59
2021/12/19 04:03:10;;;;;;;5.16;3.48;;;;;;;;;;357285;148;859622;-60
2021/12/19 04:04:12;;;;;;;3.66;2.95;;;;;;;;;;358390;148;864980;-59
2021/12/19 04:05:14;;;;;;;5.95;3.37;;;;;;;;;;358640;148;865585;-59
2021/12/19 04:06:17;;;;;;;4.59;3.59;;;;;;;;;;356014;148;857777;-58
2021/12/19 04:07:19;;;;;;;6.21;4.46;;;;;;;;;;358114;147;858610;-59
2021/12/19 04:08:20;;;;;;;5.30;3.81;;;;;;;;;;356107;147;864791;-59
2021/12/19 04:09:22;;;;;;;6.07;4.11;;;;;;;;;;355797;147;857432;-58
2021/12/19 04:10:24;;;;;;;5.69;3.81;;;;;;;;;;356331;148;857468;-59
2021/12/19 04:11:26;;;;;;;6.05;4.30;;;;;;;;;;357307;149;865561;-61
2021/12/19 04:12:29;;;;;;;4.67;3.83;;;;;;;;;;358845;148;859335;-58
2021/12/19 04:13:30;;;;;;;6.21;3.98;;;;;;;;;;356754;148;863849;-58
2021/12/19 04:14:32;;;;;;;5.23;3.69;;;;;;;;;;359825;148;857355;-58
2021/12/19 04:15:34;;;;;;;6.56;4.69;;;;;;;;;;357685;147;866941;-59
2021/12/19 04:16:36;;;;;;;3.93;2.83;;;;;;;;;;356021;147;859240;-59
2021/12/19 04:17:37;;;;;;;3.66;2.60;;;;;;;;;;357964;148;857314;-58
2021/12/19 04:18:39;;;;;;;5.61;3.44;;;;;;;;;;358752;148;865035;-58
2021/12/19 04:19:40;;;;;;;5.35;3.42;;;;;;;;;;356660;148;857563;-59
2021/12/19 04:20:42;;;;;;;5.16;3.38;;;;;;;;;;357668;147;864587;-59
2021/12/19 04:21:44;;;;;;;5.16;3.69;;;;;;;;;;357982;148;865874;-61
2021/12/19 04:22:46;;;;;;;4.98;3.38;;;;;;;;;;356260;148;858886;-59
2021/12/19 04:23:47;;;;;;;4.80;3.50;;;;;;;;;;357618;148;859542;-58
2021/12/19 04:24:49;;;;;;;7.64;4.94;;;;;;;;;;359774;147;858427;-59
2021/12/19 04:25:52;;;;;;;5.05;3.03;;;;;;;;;;357553;150;864826;-59
2021/12/19 04:26:54;;;;;;;5.07;3.36;;;;;;;;;;358658;148;857566;-59
2021/12/19 04:27:56;;;;;;;4.94;3.37;;;;;;;;;;358311;148;859289;-59
2021/12/19 04:28:57;;;;;;;4.19;3.57;;;;;;;;;;359491;148;857085;-60
2021/12/19 04:29:59;;;;;;;5.34;4.16;;;;;;;;;;355820;149;866311;-59
2021/12/19 04:31:02;;;;;;;4.30;3.10;;;;;;;;;;357717;148;858978;-59
2021/12/19 04:32:07;;;;;;;4.75;3.79;;;;;;;;;;356002;149;866148;-59
2021/12/19 04:33:11;;;;;;;5.26;3.44;;;;;;;;;;355604;147;857197;-59
2021/12/19 04:34:13;;;;;;;5.68;2.99;;;;;;;;;;356666;148;857297;-60
2021/12/19 04:35:14;;;;;;;4.51;3.67;;;;;;;;;;357046;148;857260;-58
2021/12/19 04:36:25;;;;;;;6.67;4.05;;;;;;;;;;356744;148;857190;-57
2021/12/19 04:37:51;;;;;;;5.84;3.47;;;;;;;;;;356838;148;864817;-59
2021/12/19 04:39:08;;;;;;;5.10;3.33;;;;;;;;;;355675;148;857664;-58
2021/12/19 04:39:56;;;;;;;6.15;4.03;;;;;;;;;;356991;149;859890;-58
2021/12/19 04:41:06;;;;;;;5.46;4.19;;;;;;;;;;355964;148;857265;-58
2021/12/19 04:53:07;;;;;;;5.55;3.86;;;;;;;1.45;82.78;98782.27;369297;141;881557;-60
2021/12/19 04:56:48;;;;;;;4.05;3.38;;;;;;;;;;359656;147;858885;-59
2021/12/19 04:57:49;;;;;;;3.08;2.31;;;;;;;;;;359410;144;866813;-58
2021/12/19 05:01:19;;;;;;;3.99;2.81;;;;;;;;;;362875;144;856505;-59
2021/12/19 05:02:17;;;;;;;4.33;2.81;;;;;;;;;;359787;144;864766;-60
2021/12/19 05:03:31;;;;;;;6.51;3.32;;;;;;;;;;356386;147;857631;-60
2021/12/19 05:14:38;;;;;;;5.03;3.43;;;;;;;;;;356620;148;858125;-58
2021/12/19 05:15:38;;;;;;;6.41;3.77;;;;;;;;;;357648;148;857749;-57
2021/12/19 05:16:43;;;;;;;6.50;3.97;;;;;;;;;;357850;147;866712;-57
2021/12/19 05:17:43;;;;;;;4.78;3.05;;;;;;;;;;357295;147;858814;-59
2021/12/19 05:18:47;;;;;;;4.51;2.93;;;;;;;;;;358451;145;856817;-56
2021/12/19 05:20:35;;;;;;;4.81;3.35;;;;;;;;;;357069;147;864724;-59
2021/12/19 05:20:57;;;;;;;5.37;3.24;;;;;;;;;;339779;147;857080;-57
2021/12/19 05:22:00;;;;;;;5.62;3.64;;;;;;;;;;357514;150;866451;-57
2021/12/19 05:23:07;;;;;;;6.42;3.58;;;;;;;;;;356493;147;856263;-57
2021/12/19 05:24:19;;;;;;;3.94;2.95;;;;;;;;;;357243;147;859106;-57
2021/12/19 05:25:17;;;;;;;4.23;2.12;;;;;;;;;;354861;147;864941;-56
2021/12/19 05:26:19;;;;;;;3.10;2.54;;;;;;;;;;358993;147;864768;-57
2021/12/19 05:27:21;;;;;;;4.83;3.55;;;;;;;;;;357907;147;857827;-58
2021/12/19 05:28:22;;;;;;;4.99;2.54;;;;;;;;;;353034;151;865634;-57
2021/12/19 05:29:24;;;;;;;4.25;2.64;;;;;;;;;;351870;150;865576;-57
2021/12/19 05:30:26;;;;;;;3.93;2.95;;;;;;;;;;357948;147;862250;-57
2021/12/19 05:31:28;;;;;;;5.11;2.93;;;;;;;;;;357594;147;859608;-57
2021/12/19 05:32:29;;;;;;;5.57;3.39;;;;;;;;;;357976;147;860911;-57
2021/12/19 05:33:31;;;;;;;5.81;3.51;;;;;;;;;;351549;149;857458;-58
2021/12/19 05:34:33;;;;;;;6.17;3.23;;;;;;;;;;357237;147;859537;-60
2021/12/19 05:46:12;;;;;;;5.72;3.77;;;;;;;;;;357268;147;857797;-60
2021/12/19 05:47:13;;;;;;;4.24;3.14;;;;;;;;;;359996;147;857675;-59
2021/12/19 05:48:15;;;;;;;4.65;3.34;;;;;;;;;;358443;147;858616;-60
2021/12/19 05:49:17;;;;;;;5.53;3.55;;;;;;;;;;358034;147;863793;-59
2021/12/19 05:50:19;;;;;;;5.71;3.74;;;;;;;;;;361205;147;865467;-60
2021/12/19 05:51:21;;;;;;;4.34;2.93;;;;;;;;;;355783;147;865194;-60
2021/12/19 05:52:22;;;;;;;6.44;3.16;;;;;;;;;;358178;147;858704;-60
2021/12/19 05:53:24;;;;;;;6.61;4.35;;;;;;;;;;355798;147;865135;-59
2021/12/19 06:38:00;;;;;;;6.67;3.66;;;;;;;0.41;88.95;98571.34;371186;141;873302;-60
2021/12/19 06:39:02;;;;;;;5.93;4.09;;;;;;;0.29;89.28;98562.73;362663;147;859128;-60
2021/12/19 06:40:06;;;;;;;4.83;3.36;;;;;;;0.30;89.52;98561.06;363634;147;858898;-60
2021/12/19 06:41:08;;;;;;;7.45;3.60;;;;;;;0.32;89.55;98561.93;363827;147;857445;-59
2021/12/19 06:42:10;;;;;;;5.32;3.51;;;;;;;;;;364677;146;864835;-59
2021/12/19 06:43:11;;;;;;;7.02;4.96;;;;;;;;;;365591;146;858922;-60
2021/12/19 06:44:13;;;;;;;7.66;4.25;;;;;;;;;;363445;146;867339;-62
2021/12/19 06:45:14;;;;;;;7.87;4.34;;;;;;;;;;363763;146;864860;-61
2021/12/19 06:46:16;;;;;;;5.68;3.76;;;;;;;;;;361164;147;858798;-59
2021/12/19 06:47:18;;;;;;;5.39;3.47;;;;;;;;;;361546;146;857283;-59
2021/12/19 06:48:22;;;;;;;5.88;3.68;;;;;;;;;;362872;146;860066;-58
2021/12/19 06:49:23;;;;;;;9.24;4.31;;;;;;;;;;362502;147;857280;-59
2021/12/19 06:50:24;;;;;;;7.26;4.10;;;;;;;;;;364005;147;857278;-59
2021/12/19 06:51:26;;;;;;;9.71;4.79;;;;;;;;;;361902;145;864857;-59
2021/12/19 06:52:27;;;;;;;9.14;5.04;;;;;;;;;;362339;146;866524;-60
2021/12/19 06:53:29;;;;;;;8.41;5.17;;;;;;;;;;365388;147;859392;-60
2021/12/19 06:54:31;;;;;;;8.27;5.06;;;;;;;;;;363830;147;858108;-59
2021/12/19 06:55:33;;;;;;;9.01;4.82;;;;;;;;;;364858;146;859182;-58
2021/12/19 06:56:35;;;;;;;8.49;5.01;;;;;;;;;;362744;147;867461;-59
2021/12/19 06:57:36;;;;;;;9.69;5.53;;;;;;;;;;363098;147;857871;-59
2021/12/19 06:58:38;;;;;;;12.34;6.19;;;;;;;;;;362808;146;857232;-60
2021/12/19 06:59:39;;;;;;;8.82;5.66;;;;;;;;;;362039;146;860350;-59
2021/12/19 07:00:41;;;;;;;7.49;4.37;;;;;;;;;;362659;147;865368;-61
2021/12/19 07:01:43;;;;;;;9.70;6.30;;;;;;;;;;362690;146;857308;-59
2021/12/19 07:02:44;;;;;;;7.54;4.59;;;;;;;;;;361780;146;866049;-60
2021/12/19 07:03:46;;;;;;;11.48;6.15;;;;;;;;;;361421;147;859173;-60
2021/12/19 07:04:47;;;;;;;7.60;4.99;;;;;;;;;;363097;147;863177;-59
2021/12/19 07:05:50;;;;;;;10.05;5.15;;;;;;;;;;363875;146;865162;-59
2021/12/19 07:06:51;;;;;;;8.29;5.56;;;;;;;;;;364367;146;857238;-59
2021/12/19 07:07:53;;;;;;;8.39;5.77;;;;;;;;;;365082;147;858999;-59
2021/12/19 07:08:55;;;;;;;10.11;6.64;;;;;;;;;;362761;145;864870;-59
2021/12/19 07:09:56;;;;;;;11.00;6.20;;;;;;;;;;360359;146;864196;-59
2021/12/19 07:10:58;;;;;;;11.19;6.60;;;;;;;;;;363621;147;859096;-59
2021/12/19 07:12:00;;;;;;;9.74;5.49;;;;;;;;;;363245;147;859442;-58
2021/12/19 07:13:01;;;;;;;8.70;5.52;;;;;;;;;;362936;146;864966;-58
2021/12/19 07:14:03;;;;;;;7.68;4.76;;;;;;;;;;361662;147;864857;-59
2021/12/19 07:15:05;;;;;;;8.21;3.50;;;;;;;;;;364290;145;867129;-59
2021/12/19 07:16:07;;;;;;;10.50;6.24;;;;;;;;;;362001;146;858553;-59
2021/12/19 07:17:10;;;;;;;9.63;6.00;;;;;;;;;;363208;146;858540;-58
2021/12/19 07:18:11;;;;;;;11.31;6.25;;;;;;;;;;363566;147;858442;-59
2021/12/19 07:19:13;;;;;;;9.16;5.22;;;;;;;;;;363074;146;857216;-59
2021/12/19 07:20:15;;;;;;;10.99;6.69;;;;;;;;;;361626;146;860149;-58
2021/12/19 07:21:17;;;;;;;7.54;4.91;;;;;;;;;;365351;145;857200;-58
2021/12/19 07:22:19;;;;;;;9.67;6.12;;;;;;;;;;365135;145;857351;-60
2021/12/19 07:23:21;;;;;;;11.77;6.90;;;;;;;;;;362083;145;857162;-60
2021/12/19 07:24:22;;;;;;;8.94;5.86;;;;;;;;;;362120;146;857147;-60
2021/12/19 07:25:27;;;;;;;11.64;6.64;;;;;;;;;;362615;146;857237;-57
2021/12/19 07:26:27;;;;;;;8.51;5.33;;;;;;;;;;361633;146;858960;-61
2021/12/19 07:27:29;;;;;;;11.36;6.82;;;;;;;;;;363993;146;865520;-56
2021/12/19 07:28:31;;;;;;;11.10;6.49;;;;;;;;;;359404;147;866953;-56
2021/12/19 07:29:32;;;;;;;9.61;6.43;;;;;;;;;;362421;146;864996;-56
2021/12/19 07:30:39;;;;;;;5.13;3.67;;;;;;;;;;364059;145;859782;-58
2021/12/19 07:31:38;;;;;;;7.56;4.96;;;;;;;;;;359336;147;866068;-58
2021/12/19 07:32:40;;;;;;;10.90;6.16;;;;;;;;;;364198;146;857652;-56
2021/12/19 07:33:43;;;;;;;14.44;6.79;;;;;;;;;;362352;146;857268;-59
2021/12/19 07:34:47;;;;;;;9.69;6.28;;;;;;;;;;366201;145;864153;-57
2021/12/19 07:35:49;;;;;;;15.26;7.86;;;;;;;;;;367478;145;857124;-58
2021/12/19 07:36:52;;;;;;;12.88;7.02;;;;;;;;;;361589;145;857237;-58
2021/12/19 07:37:55;;;;;;;12.53;6.81;;;;;;;;;;365107;145;865864;-58
2021/12/19 07:39:05;;;;;;;14.58;7.25;;;;;;;;;;363880;145;864575;-58
2021/12/19 07:40:15;;;;;;;12.44;7.65;;;;;;;;;;361585;146;857175;-59
2021/12/19 07:41:15;;;;;;;9.79;5.72;;;;;;;;;;363071;146;857296;-59
2021/12/19 07:42:16;;;;;;;13.82;7.30;;;;;;;;;;365246;145;857650;-58
2021/12/19 07:43:18;;;;;;;12.76;7.09;;;;;;;;;;363756;145;865609;-59
2021/12/19 07:44:19;;;;;;;10.24;5.94;;;;;;;;;;364555;145;858383;-58
2021/12/19 07:45:21;;;;;;;14.39;7.35;;;;;;;;;;354704;149;864987;-61
2021/12/19 07:46:23;;;;;;;14.37;7.20;;;;;;;;;;360393;146;857184;-58